Time;durP1;ratioP1;P1;durP2;ratioP2;P2;SDS_P1;SDS_P2;PMS_P1;PMS_P2;Temp;Humidity;BMP_temperature;BMP_pressure;BME280_temperature;BME280_humidity;BME280_pressure;Samples;Min_cycle;Max_cycle;Signal;HPM_P1;HPM_P2
2023/09/22 00:00:00;;;;;;;10.68;5.38;;;;;;;;;;2100228;28;20443;-61
2023/09/22 00:01:20;;;;;;;9.43;6.13;;;;;;;;;;2099726;28;20028;-60
2023/09/22 00:02:39;;;;;;;8.85;5.70;;;;;;;;;;2100146;28;20024;-60
2023/09/22 00:03:59;;;;;;;6.15;5.20;;;;;;;;;;2098024;28;20524;-60
2023/09/22 00:05:18;;;;;;;5.97;4.90;;;;;;;;;;2101878;28;20035;-61
2023/09/22 00:06:37;;;;;;;10.02;5.38;;;;;;;;;;2101507;28;20388;-60
2023/09/22 00:07:56;;;;;;;10.57;5.68;;;;;;;;;;2098628;28;20029;-60
2023/09/22 00:09:15;;;;;;;6.93;5.40;;;;;;;;;;2096507;28;20492;-60
2023/09/22 00:10:34;;;;;;;10.55;5.85;;;;;;;;;;2099483;28;20092;-60
2023/09/22 00:11:53;;;;;;;7.07;5.03;;;;;;;;;;2099784;28;20032;-60
2023/09/22 00:13:13;;;;;;;9.45;5.63;;;;;;;;;;2100341;28;20024;-60
2023/09/22 00:14:33;;;;;;;7.00;4.72;;;;;;;;;;2100212;28;20036;-60
2023/09/22 00:15:52;;;;;;;8.63;5.20;;;;;;;;;;2100704;28;20033;-60
2023/09/22 00:17:11;;;;;;;7.10;5.43;;;;;;;;;;2101065;28;20484;-60
2023/09/22 00:18:30;;;;;;;8.38;5.45;;;;;;;;;;2097315;28;20032;-60
2023/09/22 00:19:49;;;;;;;7.15;5.30;;;;;;;;;;2100009;28;20099;-61
2023/09/22 00:21:08;;;;;;;7.90;5.68;;;;;;;;;;2100794;28;20096;-60
2023/09/22 00:22:27;;;;;;;6.38;5.72;;;;;;;;;;2100798;28;20024;-60
2023/09/22 00:23:46;;;;;;;7.53;5.90;;;;;;;;;;2098611;28;20028;-60
2023/09/22 00:25:05;;;;;;;8.20;5.55;;;;;;;;;;2100160;28;20099;-60
2023/09/22 00:26:25;;;;;;;8.48;5.22;;;;;;;;;;2099906;28;20062;-60
2023/09/22 00:27:44;;;;;;;8.50;5.45;;;;;;;;;;2096917;28;20040;-60
2023/09/22 00:29:03;;;;;;;13.27;5.70;;;;;;;;;;2091912;28;20033;-60
2023/09/22 00:30:22;;;;;;;7.70;5.20;;;;;;;;;;2093582;28;20041;-60
2023/09/22 00:31:41;;;;;;;9.75;5.70;;;;;;;;;;2099080;28;20436;-60
2023/09/22 00:33:00;;;;;;;7.70;5.47;;;;;;;;;;2101519;28;20032;-60
2023/09/22 00:34:19;;;;;;;9.23;5.50;;;;;;;;;;2100373;28;20029;-60
2023/09/22 00:35:38;;;;;;;7.25;5.45;;;;;;;;;;2099707;28;20031;-61
2023/09/22 00:36:57;;;;;;;8.20;5.97;;;;;;;;;;2100341;28;20020;-62
2023/09/22 00:38:16;;;;;;;9.50;5.38;;;;;;;;;;2098834;28;20389;-61
2023/09/22 00:39:35;;;;;;;9.48;5.45;;;;;;;;;;2099634;28;20107;-59
2023/09/22 00:40:54;;;;;;;10.48;5.90;;;;;;;;;;2098766;28;20032;-60
2023/09/22 00:42:13;;;;;;;7.20;5.20;;;;;;;;;;2101172;28;20070;-61
2023/09/22 00:43:32;;;;;;;11.60;5.53;;;;;;;;;;2098833;28;20063;-59
2023/09/22 00:44:51;;;;;;;12.43;5.90;;;;;;;;;;2101083;28;20028;-60
2023/09/22 00:46:12;;;;;;;9.98;5.70;;;;;;;;;;2099119;28;20107;-60
2023/09/22 00:47:31;;;;;;;12.02;5.50;;;;;;;;;;2098221;28;20404;-62
2023/09/22 00:48:50;;;;;;;7.75;5.43;;;;;;;;;;2099177;28;20052;-60
2023/09/22 00:50:09;;;;;;;7.15;5.70;;;;;;;;;;2099435;28;20035;-61
2023/09/22 00:51:28;;;;;;;10.48;5.40;;;;;;;;;;2099366;28;20028;-60
2023/09/22 00:52:47;;;;;;;6.80;5.07;;;;;;;;;;2100610;28;20024;-63
2023/09/22 00:54:06;;;;;;;13.40;5.82;;;;;;;;;;2100027;28;20032;-60
2023/09/22 00:55:26;;;;;;;9.50;6.25;;;;;;;;;;2090683;28;20107;-60
2023/09/22 00:56:45;;;;;;;6.85;5.47;;;;;;;;;;2096991;28;20037;-59
2023/09/22 00:58:04;;;;;;;10.00;6.00;;;;;;;;;;2099190;28;20061;-60
2023/09/22 00:59:24;;;;;;;6.78;5.57;;;;;;;;;;2100076;28;20041;-61
2023/09/22 01:00:47;;;;;;;9.75;5.28;;;;;;;;;;2098901;28;20032;-60
2023/09/22 01:02:06;;;;;;;9.73;5.22;;;;;;;;;;2098618;28;20361;-64
2023/09/22 01:03:25;;;;;;;7.68;5.43;;;;;;;;;;2098037;28;20020;-60
2023/09/22 01:04:43;;;;;;;7.15;5.20;;;;;;;;;;2098556;28;20033;-60
2023/09/22 01:06:03;;;;;;;7.75;5.50;;;;;;;;;;2098585;28;20033;-60
2023/09/22 01:07:21;;;;;;;10.02;5.90;;;;;;;;;;2099061;28;20062;-59
2023/09/22 01:08:41;;;;;;;11.93;5.47;;;;;;;;;;2098497;28;20032;-59
2023/09/22 01:10:09;;;;;;;5.90;4.88;;;;;;;;;;2098164;28;20025;-60
2023/09/22 01:11:31;;;;;;;11.23;5.72;;;;;;;;;;2096644;28;20466;-60
2023/09/22 01:12:51;;;;;;;6.32;5.30;;;;;;;;;;2100984;28;20020;-60
2023/09/22 01:14:10;;;;;;;6.40;5.45;;;;;;;;;;2099722;28;20032;-60
2023/09/22 01:15:29;;;;;;;9.48;5.25;;;;;;;;;;2089737;28;20032;-60
2023/09/22 01:16:50;;;;;;;7.95;5.13;;;;;;;;;;2092330;28;20028;-60
2023/09/22 01:18:10;;;;;;;9.00;5.60;;;;;;;;;;2097400;28;20036;-60
2023/09/22 01:19:30;;;;;;;10.55;5.78;;;;;;;;;;2102932;28;20492;-60
2023/09/22 01:20:49;;;;;;;5.80;4.88;;;;;;;;;;2098960;28;20033;-60
2023/09/22 01:22:08;;;;;;;11.95;5.30;;;;;;;;;;2100215;28;20586;-59
2023/09/22 01:23:27;;;;;;;7.85;4.80;;;;;;;;;;2100319;28;20032;-60
2023/09/22 01:24:46;;;;;;;5.82;5.22;;;;;;;;;;2103712;28;20031;-60
2023/09/22 01:26:05;;;;;;;8.75;5.30;;;;;;;;;;2102079;28;20020;-60
2023/09/22 01:27:24;;;;;;;10.18;5.65;;;;;;;;;;2099727;28;20024;-60
2023/09/22 01:28:44;;;;;;;9.57;5.47;;;;;;;;;;2102738;28;20024;-59
2023/09/22 01:30:05;;;;;;;8.55;5.63;;;;;;;;;;2100337;28;20106;-61
2023/09/22 01:31:23;;;;;;;7.88;5.20;;;;;;;;;;2102922;28;20028;-61
2023/09/22 01:32:42;;;;;;;9.10;5.43;;;;;;;;;;2103675;28;20029;-61
2023/09/22 01:34:02;;;;;;;11.13;5.25;;;;;;;;;;2100327;28;20430;-60
2023/09/22 01:35:21;;;;;;;7.85;5.32;;;;;;;;;;2102133;28;20431;-60
2023/09/22 01:36:40;;;;;;;7.72;5.78;;;;;;;;;;2097607;28;20024;-60
2023/09/22 01:38:09;;;;;;;8.05;4.80;;;;;;;;;;2098508;28;20134;-61
2023/09/22 01:39:28;;;;;;;10.18;5.20;;;;;;;;;;2102283;28;20163;-61
2023/09/22 01:40:47;;;;;;;6.70;5.40;;;;;;;;;;2096463;28;20487;-61
2023/09/22 01:42:08;;;;;;;6.43;5.15;;;;;;;;;;2100872;28;20384;-60
2023/09/22 01:43:28;;;;;;;5.60;4.97;;;;;;;;;;2100975;28;20028;-60
2023/09/22 01:44:47;;;;;;;6.85;5.43;;;;;;;;;;2092263;28;20025;-61
2023/09/22 01:46:08;;;;;;;7.82;4.97;;;;;;;;;;2096577;28;20028;-60
2023/09/22 01:47:28;;;;;;;10.02;5.50;;;;;;;;;;2103245;28;20107;-60
2023/09/22 01:48:47;;;;;;;9.35;5.30;;;;;;;;;;2103098;28;20024;-59
2023/09/22 01:50:07;;;;;;;6.43;5.30;;;;;;;;;;2101056;28;20106;-60
2023/09/22 01:51:26;;;;;;;7.78;5.47;;;;;;;;;;2102808;28;20111;-60
2023/09/22 01:52:45;;;;;;;6.88;5.20;;;;;;;;;;2102394;28;20040;-60
2023/09/22 01:54:04;;;;;;;8.15;5.55;;;;;;;;;;2100085;28;20496;-60
2023/09/22 01:55:23;;;;;;;8.07;5.95;;;;;;;;;;2103652;28;20506;-60
2023/09/22 01:56:42;;;;;;;7.53;5.13;;;;;;;;;;2099859;28;20111;-59
2023/09/22 01:58:01;;;;;;;9.40;5.15;;;;;;;;;;2099060;28;20028;-59
2023/09/22 01:59:22;;;;;;;11.35;5.32;;;;;;;;;;2101422;28;20029;-60
2023/09/22 02:00:41;;;;;;;9.82;5.10;;;;;;;;;;2099890;28;20020;-59
2023/09/22 02:02:00;;;;;;;8.93;5.57;;;;;;;;;;2098539;28;20032;-59
2023/09/22 02:03:19;;;;;;;8.73;5.43;;;;;;;;;;2098986;28;20452;-60
2023/09/22 02:04:38;;;;;;;10.02;5.53;;;;;;;;;;2102433;28;20493;-59
2023/09/22 02:05:59;;;;;;;13.13;5.72;;;;;;;;;;2101555;28;21140;-59
2023/09/22 02:07:18;;;;;;;10.93;5.47;;;;;;;;;;2098966;28;20060;-60
2023/09/22 02:08:37;;;;;;;8.40;5.35;;;;;;;;;;2092481;28;20036;-59
2023/09/22 02:09:55;;;;;;;12.50;5.70;;;;;;;;;;2097815;28;20485;-60
2023/09/22 02:11:16;;;;;;;7.68;5.80;;;;;;;;;;2101652;28;20028;-59
2023/09/22 02:12:35;;;;;;;9.32;5.65;;;;;;;;;;2098991;28;20024;-60
2023/09/22 02:13:54;;;;;;;8.75;5.68;;;;;;;;;;2099885;28;20070;-59
2023/09/22 02:15:14;;;;;;;8.55;4.90;;;;;;;;;;2100005;28;20419;-60
2023/09/22 02:16:33;;;;;;;12.00;5.55;;;;;;;;;;2099111;28;20069;-60
2023/09/22 02:17:53;;;;;;;7.60;5.13;;;;;;;;;;2097705;28;20040;-59
2023/09/22 02:19:12;;;;;;;7.32;5.72;;;;;;;;;;2100037;28;20459;-59
2023/09/22 02:20:31;;;;;;;14.07;5.82;;;;;;;;;;2098332;28;20048;-60
2023/09/22 02:21:50;;;;;;;9.15;5.22;;;;;;;;;;2099812;28;20107;-60
2023/09/22 02:23:09;;;;;;;11.52;6.25;;;;;;;;;;2099715;28;20024;-61
2023/09/22 02:24:28;;;;;;;7.85;5.25;;;;;;;;;;2099473;28;20393;-59
2023/09/22 02:25:47;;;;;;;6.53;5.00;;;;;;;;;;2098281;28;20326;-59
2023/09/22 02:27:06;;;;;;;9.70;6.63;;;;;;;;;;2098501;28;20060;-60
2023/09/22 02:28:25;;;;;;;9.15;5.43;;;;;;;;;;2096812;28;20500;-59
2023/09/22 02:29:44;;;;;;;12.05;5.95;;;;;;;;;;2101363;28;20029;-59
2023/09/22 02:31:03;;;;;;;11.82;5.07;;;;;;;;;;2098979;28;20031;-60
2023/09/22 02:32:22;;;;;;;9.30;5.40;;;;;;;;;;2098300;28;20107;-60
2023/09/22 02:33:41;;;;;;;12.55;5.63;;;;;;;;;;2098822;28;20036;-60
2023/09/22 02:35:00;;;;;;;7.80;6.05;;;;;;;;;;2100759;28;20056;-61
2023/09/22 02:36:19;;;;;;;11.20;5.53;;;;;;;;;;2098108;28;20028;-59
2023/09/22 02:37:40;;;;;;;9.13;5.35;;;;;;;;;;2100465;28;20115;-60
2023/09/22 02:38:59;;;;;;;8.48;5.70;;;;;;;;;;2100571;28;20465;-59
2023/09/22 02:40:18;;;;;;;7.18;5.55;;;;;;;;;;2101510;28;20048;-59
2023/09/22 02:41:37;;;;;;;10.07;5.53;;;;;;;;;;2098124;28;20029;-59
2023/09/22 02:42:56;;;;;;;7.43;5.10;;;;;;;;;;2102460;28;20048;-66
2023/09/22 02:44:16;;;;;;;9.15;5.57;;;;;;;;;;2100674;28;20028;-60
2023/09/22 02:45:39;;;;;;;9.60;5.75;;;;;;;;;;2101708;28;20028;-59
2023/09/22 02:46:58;;;;;;;6.05;5.13;;;;;;;;;;2099094;28;20386;-60
2023/09/22 02:48:17;;;;;;;9.43;5.88;;;;;;;;;;2099965;28;20036;-59
2023/09/22 02:49:36;;;;;;;8.05;5.45;;;;;;;;;;2101201;28;20029;-59
2023/09/22 02:50:55;;;;;;;7.45;5.65;;;;;;;;;;2100164;28;20473;-59
2023/09/22 02:52:14;;;;;;;10.85;5.72;;;;;;;;;;2101229;28;20404;-60
2023/09/22 02:53:33;;;;;;;8.20;4.97;;;;;;;;;;2096500;28;20031;-60
2023/09/22 02:54:53;;;;;;;9.27;5.40;;;;;;;;;;2101837;28;20024;-59
2023/09/22 02:56:12;;;;;;;9.18;5.68;;;;;;;;;;2099827;28;20032;-60
2023/09/22 02:57:31;;;;;;;7.65;6.03;;;;;;;;;;2101692;28;20032;-59
2023/09/22 02:58:50;;;;;;;9.75;5.53;;;;;;;;;;2099819;28;20031;-60
2023/09/22 03:00:14;;;;;;;9.98;5.75;;;;;;;;;;2098866;28;20453;-60
2023/09/22 03:01:36;;;;;;;6.35;5.28;;;;;;;;;;2100913;28;20032;-61
2023/09/22 03:02:55;;;;;;;5.97;5.38;;;;;;;;;;2102927;28;20040;-60
2023/09/22 03:04:14;;;;;;;11.63;6.10;;;;;;;;;;2100800;28;20037;-60
2023/09/22 03:05:33;;;;;;;7.90;5.25;;;;;;;;;;2091302;28;20065;-59
2023/09/22 03:06:52;;;;;;;9.18;6.03;;;;;;;;;;2091121;28;20036;-60
2023/09/22 03:08:11;;;;;;;12.05;5.80;;;;;;;;;;2101762;28;20056;-59
2023/09/22 03:09:30;;;;;;;7.65;6.47;;;;;;;;;;2099464;28;20064;-61
2023/09/22 03:10:49;;;;;;;9.13;6.40;;;;;;;;;;2102155;28;20020;-60
2023/09/22 03:12:08;;;;;;;8.10;5.53;;;;;;;;;;2101592;28;20115;-60
2023/09/22 03:13:27;;;;;;;12.02;7.15;;;;;;;;;;2099520;28;20670;-60
2023/09/22 03:14:49;;;;;;;8.40;5.28;;;;;;;;;;2101266;28;20052;-60
2023/09/22 03:16:08;;;;;;;10.55;5.57;;;;;;;;;;2103230;28;20032;-60
2023/09/22 03:17:27;;;;;;;9.02;5.38;;;;;;;;;;2101496;28;20999;-59
2023/09/22 03:18:47;;;;;;;9.77;6.50;;;;;;;;;;2100985;28;20539;-60
2023/09/22 03:20:07;;;;;;;12.85;6.50;;;;;;;;;;2101161;28;20455;-60
2023/09/22 03:21:26;;;;;;;19.40;6.15;;;;;;;;;;2091794;28;20479;-61
2023/09/22 03:22:45;;;;;;;11.35;6.78;;;;;;;;;;2098554;28;20161;-60
2023/09/22 03:24:05;;;;;;;11.40;6.18;;;;;;;;;;2102020;28;20107;-60
2023/09/22 03:25:23;;;;;;;9.20;5.85;;;;;;;;;;2101433;28;20020;-60
2023/09/22 03:26:42;;;;;;;10.63;7.00;;;;;;;;;;2100440;28;20086;-60
2023/09/22 03:28:02;;;;;;;13.57;6.90;;;;;;;;;;2103197;28;20020;-60
2023/09/22 03:29:21;;;;;;;8.52;6.00;;;;;;;;;;2099827;28;20032;-60
2023/09/22 03:30:40;;;;;;;8.27;6.18;;;;;;;;;;2100517;28;20119;-60
2023/09/22 03:31:59;;;;;;;9.35;6.10;;;;;;;;;;2101289;28;20058;-60
2023/09/22 03:33:18;;;;;;;9.57;6.43;;;;;;;;;;2103155;28;20036;-61
2023/09/22 03:34:37;;;;;;;11.23;6.38;;;;;;;;;;2103736;28;20032;-61
2023/09/22 03:35:56;;;;;;;10.68;6.75;;;;;;;;;;2101086;28;20036;-59
2023/09/22 03:37:15;;;;;;;10.88;6.40;;;;;;;;;;2099181;28;20040;-60
2023/09/22 03:38:35;;;;;;;8.63;6.55;;;;;;;;;;2103065;28;20032;-61
2023/09/22 03:39:55;;;;;;;18.05;7.10;;;;;;;;;;2102406;28;20039;-60
2023/09/22 03:41:15;;;;;;;10.55;6.25;;;;;;;;;;2101634;28;20028;-59
2023/09/22 03:42:35;;;;;;;9.38;6.22;;;;;;;;;;2100073;28;20068;-59
2023/09/22 03:43:55;;;;;;;12.55;6.40;;;;;;;;;;2100480;28;20028;-59
2023/09/22 03:45:14;;;;;;;12.43;6.35;;;;;;;;;;2099496;28;20021;-60
2023/09/22 03:46:33;;;;;;;14.82;6.50;;;;;;;;;;2099070;28;20388;-59
2023/09/22 03:47:53;;;;;;;16.35;7.10;;;;;;;;;;2098437;28;20036;-60
2023/09/22 03:49:12;;;;;;;14.00;6.80;;;;;;;;;;2101781;28;20032;-59
2023/09/22 03:50:32;;;;;;;11.18;6.50;;;;;;;;;;2100912;28;20111;-59
2023/09/22 03:51:50;;;;;;;11.75;6.75;;;;;;;;;;2099804;28;20029;-60
2023/09/22 03:53:09;;;;;;;8.65;6.78;;;;;;;;;;2100719;28;20539;-59
2023/09/22 03:54:29;;;;;;;10.10;7.32;;;;;;;;;;2101866;28;20041;-59
2023/09/22 03:55:48;;;;;;;10.00;6.57;;;;;;;;;;2100046;28;20024;-59
2023/09/22 03:57:06;;;;;;;9.23;7.20;;;;;;;;;;2100333;28;20024;-60
2023/09/22 03:58:26;;;;;;;7.25;6.45;;;;;;;;;;2100032;28;20032;-60
2023/09/22 03:59:45;;;;;;;12.98;6.75;;;;;;;;;;2100331;28;20032;-59
2023/09/22 04:01:08;;;;;;;13.55;7.43;;;;;;;;;;2099430;28;20028;-60
2023/09/22 04:02:27;;;;;;;11.63;7.43;;;;;;;;;;2102048;28;20028;-59
2023/09/22 04:03:47;;;;;;;12.20;7.15;;;;;;;;;;2099840;28;20346;-59
2023/09/22 04:05:06;;;;;;;15.20;6.97;;;;;;;;;;2101062;28;20020;-59
2023/09/22 04:06:25;;;;;;;9.38;6.88;;;;;;;;;;2100962;28;20024;-59
2023/09/22 04:07:44;;;;;;;10.35;7.07;;;;;;;;;;2101854;28;20032;-59
2023/09/22 04:09:03;;;;;;;9.50;7.20;;;;;;;;;;2098495;28;20028;-61
2023/09/22 04:10:22;;;;;;;11.88;7.13;;;;;;;;;;2098152;28;20393;-61
2023/09/22 04:11:41;;;;;;;14.82;7.45;;;;;;;;;;2097235;28;20599;-59
2023/09/22 04:13:00;;;;;;;10.77;6.35;;;;;;;;;;2098594;28;20028;-59
2023/09/22 04:14:20;;;;;;;13.30;7.30;;;;;;;;;;2099327;28;20036;-60
2023/09/22 04:15:39;;;;;;;8.05;6.97;;;;;;;;;;2099711;28;20032;-60
2023/09/22 04:16:58;;;;;;;8.85;6.85;;;;;;;;;;2097575;28;20028;-60
2023/09/22 04:18:17;;;;;;;12.75;6.90;;;;;;;;;;2100797;28;20393;-59
2023/09/22 04:19:37;;;;;;;18.30;7.75;;;;;;;;;;2099256;28;20611;-59
2023/09/22 04:20:57;;;;;;;9.73;7.50;;;;;;;;;;2090366;28;20028;-60
2023/09/22 04:22:17;;;;;;;9.77;7.18;;;;;;;;;;2096517;28;20353;-60
2023/09/22 04:23:36;;;;;;;13.40;6.93;;;;;;;;;;2101483;28;20449;-60
2023/09/22 04:25:08;;;;;;;10.38;6.97;;;;;;;;;;2095318;28;20058;-61
2023/09/22 04:26:29;;;;;;;12.32;7.72;;;;;;;;;;2096346;28;20036;-59
2023/09/22 04:27:54;;;;;;;17.35;7.47;;;;;;;;;;2098436;28;20025;-59
2023/09/22 04:29:14;;;;;;;11.00;7.22;;;;;;;;;;2098454;28;20501;-60
2023/09/22 04:30:36;;;;;;;13.88;7.50;;;;;;;;;;2097195;28;20574;-60
2023/09/22 04:31:55;;;;;;;11.63;7.10;;;;;;;;;;2099842;28;20103;-59
2023/09/22 04:33:14;;;;;;;11.52;6.40;;;;;;;;;;2099200;28;20040;-59
2023/09/22 04:34:33;;;;;;;8.75;6.60;;;;;;;;;;2097929;28;20036;-62
2023/09/22 04:35:52;;;;;;;13.10;7.15;;;;;;;;;;2097637;28;20098;-63
2023/09/22 04:37:11;;;;;;;13.20;6.93;;;;;;;;;;2099954;28;20112;-62
2023/09/22 04:38:30;;;;;;;9.77;6.70;;;;;;;;;;2099978;28;20035;-64
2023/09/22 04:39:49;;;;;;;12.77;7.43;;;;;;;;;;2096934;28;20032;-62
2023/09/22 04:41:08;;;;;;;16.52;7.43;;;;;;;;;;2085233;28;20049;-63
2023/09/22 04:42:27;;;;;;;13.35;7.20;;;;;;;;;;2090964;28;20393;-64
2023/09/22 04:43:46;;;;;;;14.75;7.50;;;;;;;;;;2095849;28;20028;-63
2023/09/22 04:45:09;;;;;;;10.50;7.07;;;;;;;;;;2096465;28;20068;-60
2023/09/22 04:46:28;;;;;;;12.25;6.97;;;;;;;;;;2098781;28;20017;-60
2023/09/22 04:47:48;;;;;;;10.00;6.82;;;;;;;;;;2091033;28;20485;-61
2023/09/22 04:49:09;;;;;;;11.23;7.00;;;;;;;;;;2096880;28;20037;-62
2023/09/22 04:50:29;;;;;;;12.23;6.53;;;;;;;;;;2098046;28;20099;-62
2023/09/22 04:51:48;;;;;;;16.77;7.20;;;;;;;;;;2100568;28;20036;-61
2023/09/22 04:53:08;;;;;;;16.65;7.75;;;;;;;;;;2100666;28;20028;-62
2023/09/22 04:54:29;;;;;;;11.25;6.95;;;;;;;;;;2096968;28;20520;-61
2023/09/22 04:55:48;;;;;;;14.90;7.28;;;;;;;;;;2100147;28;20023;-61
2023/09/22 04:57:07;;;;;;;12.38;7.28;;;;;;;;;;2098318;28;20033;-63
2023/09/22 04:58:26;;;;;;;13.77;7.78;;;;;;;;;;2100928;28;20024;-63
2023/09/22 04:59:46;;;;;;;15.95;6.78;;;;;;;;;;2100175;28;20032;-62
2023/09/22 05:01:05;;;;;;;13.02;7.60;;;;;;;;;;2092929;28;20020;-63
2023/09/22 05:02:23;;;;;;;14.43;8.18;;;;;;;;;;2101547;28;20033;-62
2023/09/22 05:03:43;;;;;;;12.45;6.82;;;;;;;;;;2099039;28;20417;-62
2023/09/22 05:05:01;;;;;;;10.65;6.90;;;;;;;;;;2100522;28;20020;-62
2023/09/22 05:06:21;;;;;;;12.93;7.00;;;;;;;;;;2093488;28;20500;-62
2023/09/22 05:07:40;;;;;;;11.40;6.97;;;;;;;;;;2097475;28;20032;-62
2023/09/22 05:08:59;;;;;;;14.55;7.25;;;;;;;;;;2099351;28;20115;-61
2023/09/22 05:10:18;;;;;;;9.35;6.90;;;;;;;;;;2100352;28;20029;-62
2023/09/22 05:11:37;;;;;;;11.60;7.20;;;;;;;;;;2095506;28;20500;-63
2023/09/22 05:12:56;;;;;;;16.65;6.93;;;;;;;;;;2096719;28;20116;-62
2023/09/22 05:14:15;;;;;;;9.10;6.35;;;;;;;;;;2097732;28;20059;-62
2023/09/22 05:15:34;;;;;;;11.70;6.70;;;;;;;;;;2099241;28;20028;-63
2023/09/22 05:16:53;;;;;;;12.80;6.40;;;;;;;;;;2097739;28;20024;-61
2023/09/22 05:18:15;;;;;;;12.15;7.07;;;;;;;;;;2100262;28;20040;-61
2023/09/22 05:19:34;;;;;;;13.13;6.72;;;;;;;;;;2088326;28;20428;-62
2023/09/22 05:20:54;;;;;;;10.75;6.53;;;;;;;;;;2095994;28;20028;-61
2023/09/22 05:22:13;;;;;;;14.50;6.57;;;;;;;;;;2102062;28;20024;-61
2023/09/22 05:23:32;;;;;;;11.65;6.70;;;;;;;;;;2100929;28;20488;-61
2023/09/22 05:24:51;;;;;;;15.95;6.20;;;;;;;;;;2099907;28;20071;-61
2023/09/22 05:26:10;;;;;;;10.38;6.88;;;;;;;;;;2091680;28;20040;-61
2023/09/22 05:27:29;;;;;;;10.05;6.00;;;;;;;;;;2096950;28;20913;-62
2023/09/22 05:28:49;;;;;;;9.48;6.38;;;;;;;;;;2099566;28;20115;-61
2023/09/22 05:30:08;;;;;;;10.57;6.32;;;;;;;;;;2099960;28;20040;-61
2023/09/22 05:31:27;;;;;;;17.75;6.75;;;;;;;;;;2099465;28;20032;-61
2023/09/22 05:32:46;;;;;;;13.27;6.68;;;;;;;;;;2100486;28;20021;-65
2023/09/22 05:34:05;;;;;;;14.43;7.25;;;;;;;;;;2089775;28;20025;-61
2023/09/22 05:35:24;;;;;;;13.70;7.00;;;;;;;;;;2095432;28;20021;-61
2023/09/22 05:36:43;;;;;;;13.75;7.45;;;;;;;;;;2098346;28;20032;-62
2023/09/22 05:38:03;;;;;;;9.82;7.15;;;;;;;;;;2096711;28;20024;-61
2023/09/22 05:39:22;;;;;;;9.10;5.72;;;;;;;;;;2100909;28;20805;-61
2023/09/22 05:40:41;;;;;;;12.30;6.95;;;;;;;;;;2100090;28;20036;-61
2023/09/22 05:42:00;;;;;;;12.25;7.10;;;;;;;;;;2099866;28;20048;-61
2023/09/22 05:43:22;;;;;;;10.30;6.63;;;;;;;;;;2099570;28;20032;-60
2023/09/22 05:44:42;;;;;;;17.55;7.03;;;;;;;;;;2100173;28;20032;-61
2023/09/22 05:46:01;;;;;;;9.98;6.40;;;;;;;;;;2098889;28;20024;-61
2023/09/22 05:47:20;;;;;;;9.23;6.32;;;;;;;;;;2100403;28;20589;-62
2023/09/22 05:48:39;;;;;;;11.50;6.88;;;;;;;;;;2098968;28;20032;-61
2023/09/22 05:49:59;;;;;;;12.68;6.68;;;;;;;;;;2097281;28;20066;-61
2023/09/22 05:51:19;;;;;;;14.80;7.22;;;;;;;;;;2101884;28;20060;-62
2023/09/22 05:52:38;;;;;;;9.32;6.68;;;;;;;;;;2098879;28;20025;-61
2023/09/22 05:53:56;;;;;;;9.30;6.43;;;;;;;;;;2100338;28;20404;-62
2023/09/22 05:55:16;;;;;;;13.07;6.78;;;;;;;;;;2100061;28;20392;-62
2023/09/22 05:56:35;;;;;;;10.45;6.97;;;;;;;;;;2097464;28;20024;-61
2023/09/22 05:57:55;;;;;;;11.65;6.28;;;;;;;;;;2097750;28;20024;-62
2023/09/22 05:59:14;;;;;;;13.82;6.47;;;;;;;;;;2098393;28;20040;-61
2023/09/22 06:00:34;;;;;;;10.23;6.32;;;;;;;;;;2093350;28;20524;-62
2023/09/22 06:01:54;;;;;;;15.95;6.32;;;;;;;;;;2101365;28;20024;-60
2023/09/22 06:03:12;;;;;;;14.65;6.53;;;;;;;;;;2100228;28;20032;-60
2023/09/22 06:04:32;;;;;;;9.77;6.13;;;;;;;;;;2099540;28;20028;-61
2023/09/22 06:05:51;;;;;;;11.48;6.63;;;;;;;;;;2101059;28;20715;-60
2023/09/22 06:07:12;;;;;;;10.50;6.03;;;;;;;;;;2100303;28;20028;-61
2023/09/22 06:08:31;;;;;;;19.17;6.78;;;;;;;;;;2101580;28;20489;-61
2023/09/22 06:09:50;;;;;;;12.80;6.18;;;;;;;;;;2101066;28;20033;-61
2023/09/22 06:11:10;;;;;;;7.80;5.93;;;;;;;;;;2101789;28;20028;-60
2023/09/22 06:12:30;;;;;;;12.82;6.22;;;;;;;;;;2100097;28;20020;-63
2023/09/22 06:13:49;;;;;;;12.15;5.35;;;;;;;;;;2100025;28;20345;-61
2023/09/22 06:15:09;;;;;;;15.35;6.55;;;;;;;;;;2101752;28;20417;-62
2023/09/22 06:16:28;;;;;;;10.00;6.07;;;;;;;;;;2101672;28;20044;-61
2023/09/22 06:17:48;;;;;;;10.20;5.40;;;;;;;;;;2101937;28;20044;-62
2023/09/22 06:19:10;;;;;;;7.45;5.53;;;;;;;;;;2101493;28;20036;-61
2023/09/22 06:20:28;;;;;;;6.53;5.82;;;;;;;;;;2103231;28;20032;-61
2023/09/22 06:21:47;;;;;;;19.80;6.28;;;;;;;;;;2103467;28;20024;-62
2023/09/22 06:23:08;;;;;;;9.25;5.93;;;;;;;;;;2102910;28;20425;-61
2023/09/22 06:24:27;;;;;;;12.77;6.03;;;;;;;;;;2101717;28;20021;-61
2023/09/22 06:25:47;;;;;;;9.13;5.40;;;;;;;;;;2101998;28;20024;-62
2023/09/22 06:27:07;;;;;;;10.27;6.20;;;;;;;;;;2100898;28;20020;-61
2023/09/22 06:28:26;;;;;;;13.88;5.40;;;;;;;;;;2099752;28;20025;-62
2023/09/22 06:29:45;;;;;;;12.32;5.88;;;;;;;;;;2102184;28;20024;-61
2023/09/22 06:31:04;;;;;;;10.90;5.30;;;;;;;;;;2102832;28;20036;-62
2023/09/22 06:32:23;;;;;;;13.77;5.90;;;;;;;;;;2103195;28;20033;-61
2023/09/22 06:33:43;;;;;;;11.35;5.85;;;;;;;;;;2101545;28;20073;-61
2023/09/22 06:35:01;;;;;;;13.23;5.47;;;;;;;;;;2102809;28;20028;-61
2023/09/22 06:36:22;;;;;;;10.73;5.30;;;;;;;;;;2102282;28;20028;-63
2023/09/22 06:37:42;;;;;;;9.70;5.60;;;;;;;;;;2103045;28;20028;-61
2023/09/22 06:39:07;;;;;;;10.02;5.63;;;;;;;;;;2101903;28;20059;-61
2023/09/22 06:40:26;;;;;;;10.27;5.68;;;;;;;;;;2102675;28;20032;-61
2023/09/22 06:41:46;;;;;;;10.45;5.35;;;;;;;;;;2096330;28;20020;-61
2023/09/22 06:43:05;;;;;;;13.05;5.55;;;;;;;;;;2099583;28;20024;-61
2023/09/22 06:44:27;;;;;;;10.15;5.35;;;;;;;;;;2102762;28;20021;-61
2023/09/22 06:45:46;;;;;;;6.88;5.50;;;;;;;;;;2102115;28;20024;-61
2023/09/22 06:47:05;;;;;;;9.32;5.13;;;;;;;;;;2099813;28;20028;-61
2023/09/22 06:48:27;;;;;;;9.40;5.80;;;;;;;;;;2100836;28;20028;-61
2023/09/22 06:49:46;;;;;;;11.25;5.15;;;;;;;;;;2101995;28;20379;-62
2023/09/22 06:51:06;;;;;;;10.15;5.20;;;;;;;;;;2102680;28;20041;-61
2023/09/22 06:52:24;;;;;;;8.93;5.60;;;;;;;;;;2101675;28;20064;-61
2023/09/22 06:53:44;;;;;;;11.48;5.35;;;;;;;;;;2101117;28;20319;-61
2023/09/22 06:55:07;;;;;;;11.90;5.45;;;;;;;;;;2102022;28;20111;-61
2023/09/22 06:56:26;;;;;;;7.53;4.93;;;;;;;;;;2101608;28;20036;-61
2023/09/22 06:57:46;;;;;;;10.13;4.80;;;;;;;;;;2102287;28;20024;-61
2023/09/22 06:59:06;;;;;;;10.25;4.97;;;;;;;;;;2101861;28;20115;-61
2023/09/22 07:00:28;;;;;;;10.50;5.43;;;;;;;;;;2101404;28;20381;-62
2023/09/22 07:01:48;;;;;;;8.60;5.13;;;;;;;;;;2102512;28;20404;-62
2023/09/22 07:03:08;;;;;;;6.40;4.80;;;;;;;;;;2102036;28;20020;-62
2023/09/22 07:04:27;;;;;;;11.02;5.20;;;;;;;;;;2100186;28;20020;-62
2023/09/22 07:05:46;;;;;;;10.10;5.03;;;;;;;;;;2101919;28;20036;-62
2023/09/22 07:07:06;;;;;;;5.35;4.22;;;;;;;;;;2101494;28;20520;-61
2023/09/22 07:08:25;;;;;;;10.93;5.80;;;;;;;;;;2101925;28;20028;-61
2023/09/22 07:09:44;;;;;;;7.75;4.88;;;;;;;;;;2102910;28;20028;-61
2023/09/22 07:11:10;;;;;;;10.88;5.00;;;;;;;;;;2101502;28;20102;-61
2023/09/22 07:12:30;;;;;;;7.82;4.90;;;;;;;;;;2102016;28;20059;-61
2023/09/22 07:13:49;;;;;;;10.55;4.93;;;;;;;;;;2102854;28;20090;-61
2023/09/22 07:15:08;;;;;;;6.53;4.38;;;;;;;;;;2101795;28;20352;-61
2023/09/22 07:16:27;;;;;;;6.97;5.20;;;;;;;;;;2091626;28;20033;-62
2023/09/22 07:17:46;;;;;;;9.45;4.78;;;;;;;;;;2106693;28;20039;-62
2023/09/22 07:19:05;;;;;;;7.70;4.82;;;;;;;;;;2109992;28;20067;-61
2023/09/22 07:20:24;;;;;;;7.90;4.65;;;;;;;;;;2110448;28;20024;-61
2023/09/22 07:21:43;;;;;;;6.65;4.72;;;;;;;;;;2109361;28;20024;-61
2023/09/22 07:23:03;;;;;;;8.50;4.88;;;;;;;;;;2110552;28;20028;-61
2023/09/22 07:24:21;;;;;;;8.48;4.95;;;;;;;;;;2111232;28;20032;-61
2023/09/22 07:25:40;;;;;;;7.32;4.53;;;;;;;;;;2111454;28;20472;-61
2023/09/22 07:27:00;;;;;;;7.57;4.45;;;;;;;;;;2110014;28;20024;-61
2023/09/22 07:28:19;;;;;;;12.38;4.43;;;;;;;;;;2109035;28;20036;-62
2023/09/22 07:29:38;;;;;;;12.73;4.20;;;;;;;;;;2111049;28;20020;-61
2023/09/22 07:30:57;;;;;;;8.30;4.10;;;;;;;;;;2112036;28;20039;-61
2023/09/22 07:32:16;;;;;;;9.35;4.82;;;;;;;;;;2110454;28;20488;-61
2023/09/22 07:33:35;;;;;;;8.68;4.07;;;;;;;;;;2109602;28;20062;-63
2023/09/22 07:34:54;;;;;;;9.73;5.07;;;;;;;;;;2107456;28;20039;-63
2023/09/22 07:36:15;;;;;;;9.55;4.68;;;;;;;;;;2109461;28;20031;-61
2023/09/22 07:37:34;;;;;;;7.28;4.65;;;;;;;;;;2110477;28;20114;-61
2023/09/22 07:38:53;;;;;;;12.80;5.05;;;;;;;;;;2109712;28;20032;-62
2023/09/22 07:40:12;;;;;;;9.57;4.57;;;;;;;;;;2108174;28;20023;-61
2023/09/22 07:41:32;;;;;;;6.68;4.60;;;;;;;;;;2109227;28;21734;-63
2023/09/22 07:42:51;;;;;;;9.43;4.28;;;;;;;;;;2110317;28;20020;-62
2023/09/22 07:44:10;;;;;;;12.05;4.60;;;;;;;;;;2109910;28;20031;-62
2023/09/22 07:45:29;;;;;;;9.35;4.55;;;;;;;;;;2111441;27;20485;-62
2023/09/22 07:46:48;;;;;;;6.55;4.60;;;;;;;;;;2109818;28;20426;-61
2023/09/22 07:48:07;;;;;;;9.23;4.57;;;;;;;;;;2107988;28;20044;-61
2023/09/22 07:49:26;;;;;;;6.97;4.20;;;;;;;;;;2110096;28;20027;-62
2023/09/22 07:50:45;;;;;;;7.72;4.53;;;;;;;;;;2110292;28;20028;-62
2023/09/22 07:52:04;;;;;;;11.50;4.38;;;;;;;;;;2111464;28;20493;-61